sensor_id;sensor_type;location;lat;lon;timestamp;pressure;altitude;pressure_sealevel;temperature;humidity
11347;BME280;5728;42.722;23.258;2022-12-22T00:01:52;95000.66;;;-0.26;82.03
11347;BME280;5728;42.722;23.258;2022-12-22T00:04:37;95011.16;;;-0.45;84.78
11347;BME280;5728;42.722;23.258;2022-12-22T00:07:21;95013.31;;;-0.29;85.03
11347;BME280;5728;42.722;23.258;2022-12-22T00:10:06;95004.03;;;-0.27;83.95
11347;BME280;5728;42.722;23.258;2022-12-22T00:12:51;95010.03;;;0.05;84.55
11347;BME280;5728;42.722;23.258;2022-12-22T00:15:37;95013.16;;;-0.06;82.09
11347;BME280;5728;42.722;23.258;2022-12-22T00:18:21;95013.41;;;-0.26;83.37
11347;BME280;5728;42.722;23.258;2022-12-22T00:21:07;95010.22;;;-0.47;84.25
11347;BME280;5728;42.722;23.258;2022-12-22T00:23:52;95010.50;;;-0.67;84.47
11347;BME280;5728;42.722;23.258;2022-12-22T00:26:36;95014.13;;;-0.87;85.09
11347;BME280;5728;42.722;23.258;2022-12-22T00:29:21;95013.28;;;-1.12;85.06
11347;BME280;5728;42.722;23.258;2022-12-22T00:32:11;95009.66;;;-0.94;86.09
11347;BME280;5728;42.722;23.258;2022-12-22T00:34:56;95011.28;;;-0.96;86.19
11347;BME280;5728;42.722;23.258;2022-12-22T00:37:41;95007.09;;;-1.20;86.55
11347;BME280;5728;42.722;23.258;2022-12-22T00:40:26;95010.56;;;-1.18;88.02
11347;BME280;5728;42.722;23.258;2022-12-22T00:43:11;94990.59;;;-0.51;88.08
11347;BME280;5728;42.722;23.258;2022-12-22T00:45:55;95000.91;;;-0.17;85.05
11347;BME280;5728;42.722;23.258;2022-12-22T00:48:42;94998.03;;;-0.57;85.51
11347;BME280;5728;42.722;23.258;2022-12-22T00:51:26;94992.31;;;-0.50;84.67
11347;BME280;5728;42.722;23.258;2022-12-22T00:54:13;94987.50;;;-0.41;88.12
11347;BME280;5728;42.722;23.258;2022-12-22T01:14:18;94974.59;;;1.52;77.03
11347;BME280;5728;42.722;23.258;2022-12-22T01:17:03;94974.94;;;1.69;74.93
11347;BME280;5728;42.722;23.258;2022-12-22T01:19:47;94966.38;;;1.65;75.08
11347;BME280;5728;42.722;23.258;2022-12-22T01:22:31;94970.59;;;1.63;75.26
11347;BME280;5728;42.722;23.258;2022-12-22T01:25:17;94968.84;;;1.62;75.67
11347;BME280;5728;42.722;23.258;2022-12-22T01:28:02;94965.59;;;1.69;75.07
11347;BME280;5728;42.722;23.258;2022-12-22T01:30:48;94965.72;;;1.75;75.38
11347;BME280;5728;42.722;23.258;2022-12-22T01:33:32;94963.94;;;1.71;75.31
11347;BME280;5728;42.722;23.258;2022-12-22T01:36:17;94965.00;;;1.81;74.57
11347;BME280;5728;42.722;23.258;2022-12-22T01:39:01;94963.09;;;1.72;74.55
11347;BME280;5728;42.722;23.258;2022-12-22T01:41:48;94969.69;;;1.61;74.40
11347;BME280;5728;42.722;23.258;2022-12-22T01:44:32;94962.72;;;1.54;76.27
11347;BME280;5728;42.722;23.258;2022-12-22T01:47:34;94957.81;;;1.63;75.41
11347;BME280;5728;42.722;23.258;2022-12-22T01:50:23;94967.75;;;1.51;75.26
11347;BME280;5728;42.722;23.258;2022-12-22T01:53:12;94970.78;;;1.72;75.14
11347;BME280;5728;42.722;23.258;2022-12-22T01:55:58;94974.63;;;0.46;76.64
11347;BME280;5728;42.722;23.258;2022-12-22T01:58:46;94970.59;;;0.54;78.94
11347;BME280;5728;42.722;23.258;2022-12-22T02:01:32;94976.78;;;0.65;77.99
11347;BME280;5728;42.722;23.258;2022-12-22T02:04:18;94967.13;;;0.87;78.46
11347;BME280;5728;42.722;23.258;2022-12-22T02:07:15;94972.66;;;1.05;78.17
11347;BME280;5728;42.722;23.258;2022-12-22T02:10:11;94962.59;;;1.11;78.21
11347;BME280;5728;42.722;23.258;2022-12-22T02:13:04;94961.81;;;0.78;77.91
11347;BME280;5728;42.722;23.258;2022-12-22T02:15:56;94963.53;;;0.79;77.82
11347;BME280;5728;42.722;23.258;2022-12-22T02:18:48;94960.00;;;0.74;79.59
11347;BME280;5728;42.722;23.258;2022-12-22T02:21:50;94960.97;;;0.79;78.49
11347;BME280;5728;42.722;23.258;2022-12-22T02:24:40;94957.53;;;0.42;79.18
11347;BME280;5728;42.722;23.258;2022-12-22T02:27:29;94962.78;;;-0.44;82.17
11347;BME280;5728;42.722;23.258;2022-12-22T02:30:16;94956.00;;;-0.73;84.99
11347;BME280;5728;42.722;23.258;2022-12-22T02:33:00;94963.38;;;-0.52;86.33
11347;BME280;5728;42.722;23.258;2022-12-22T02:35:48;94959.00;;;-0.28;87.74
11347;BME280;5728;42.722;23.258;2022-12-22T02:38:40;94965.66;;;-0.61;88.20
11347;BME280;5728;42.722;23.258;2022-12-22T02:41:34;94951.59;;;-0.79;89.58
11347;BME280;5728;42.722;23.258;2022-12-22T02:44:27;94958.66;;;-0.40;88.19
11347;BME280;5728;42.722;23.258;2022-12-22T02:47:19;94950.78;;;-0.18;84.66
11347;BME280;5728;42.722;23.258;2022-12-22T02:50:12;94946.94;;;-0.04;84.71
11347;BME280;5728;42.722;23.258;2022-12-22T02:53:01;94945.88;;;0.21;82.38
11347;BME280;5728;42.722;23.258;2022-12-22T02:55:45;94957.13;;;0.60;80.63
11347;BME280;5728;42.722;23.258;2022-12-22T02:58:31;94950.91;;;0.50;80.99
11347;BME280;5728;42.722;23.258;2022-12-22T03:01:18;94945.97;;;0.56;81.33
11347;BME280;5728;42.722;23.258;2022-12-22T03:04:03;94950.75;;;0.12;82.05
11347;BME280;5728;42.722;23.258;2022-12-22T03:06:47;94946.59;;;0.15;82.17
11347;BME280;5728;42.722;23.258;2022-12-22T03:09:31;94955.88;;;0.44;82.18
11347;BME280;5728;42.722;23.258;2022-12-22T03:12:15;94953.09;;;0.70;80.65
11347;BME280;5728;42.722;23.258;2022-12-22T03:14:58;94951.69;;;0.48;83.78
11347;BME280;5728;42.722;23.258;2022-12-22T03:17:44;94943.97;;;-0.49;84.79
11347;BME280;5728;42.722;23.258;2022-12-22T03:20:28;94941.22;;;-0.56;87.56
11347;BME280;5728;42.722;23.258;2022-12-22T03:23:12;94947.25;;;-0.23;86.88
11347;BME280;5728;42.722;23.258;2022-12-22T03:25:56;94956.13;;;-1.23;85.41
11347;BME280;5728;42.722;23.258;2022-12-22T03:28:24;94947.06;;;-0.29;86.13
11347;BME280;5728;42.722;23.258;2022-12-22T03:30:53;94949.38;;;-0.07;83.53
11347;BME280;5728;42.722;23.258;2022-12-22T03:33:21;94947.78;;;-0.05;83.60
11347;BME280;5728;42.722;23.258;2022-12-22T03:35:48;94948.41;;;0.19;83.14
11347;BME280;5728;42.722;23.258;2022-12-22T03:38:15;94945.47;;;0.37;80.88
11347;BME280;5728;42.722;23.258;2022-12-22T03:40:42;94957.81;;;0.54;78.93
11347;BME280;5728;42.722;23.258;2022-12-22T03:43:10;94961.66;;;-0.25;80.35
11347;BME280;5728;42.722;23.258;2022-12-22T03:45:55;94963.00;;;-1.21;84.58
11347;BME280;5728;42.722;23.258;2022-12-22T03:48:41;94956.72;;;-0.49;84.66
11347;BME280;5728;42.722;23.258;2022-12-22T03:51:08;94946.97;;;-0.34;84.28
11347;BME280;5728;42.722;23.258;2022-12-22T03:53:35;94950.28;;;-1.21;85.03
11347;BME280;5728;42.722;23.258;2022-12-22T03:56:02;94951.91;;;-1.48;88.36
11347;BME280;5728;42.722;23.258;2022-12-22T03:58:29;94956.44;;;-1.40;89.42
11347;BME280;5728;42.722;23.258;2022-12-22T04:01:04;94953.13;;;-1.89;89.68
11347;BME280;5728;42.722;23.258;2022-12-22T04:03:31;94958.31;;;-2.10;90.72
11347;BME280;5728;42.722;23.258;2022-12-22T04:05:59;94948.34;;;-2.04;92.33
11347;BME280;5728;42.722;23.258;2022-12-22T04:08:26;94952.97;;;-2.17;92.22
11347;BME280;5728;42.722;23.258;2022-12-22T04:10:53;94955.06;;;-2.06;92.94
11347;BME280;5728;42.722;23.258;2022-12-22T04:13:37;94949.09;;;-1.82;91.73
11347;BME280;5728;42.722;23.258;2022-12-22T04:16:05;94950.38;;;-1.43;91.79
11347;BME280;5728;42.722;23.258;2022-12-22T04:18:32;94961.16;;;-1.52;90.71
11347;BME280;5728;42.722;23.258;2022-12-22T04:21:00;94951.75;;;-1.54;91.18
11347;BME280;5728;42.722;23.258;2022-12-22T04:23:27;94945.53;;;-1.87;91.37
11347;BME280;5728;42.722;23.258;2022-12-22T04:25:53;94949.97;;;-1.57;91.86
11347;BME280;5728;42.722;23.258;2022-12-22T04:28:20;94950.31;;;-1.19;90.35
11347;BME280;5728;42.722;23.258;2022-12-22T04:30:48;94956.06;;;-0.70;88.03
11347;BME280;5728;42.722;23.258;2022-12-22T04:33:15;94947.16;;;-0.26;85.88
11347;BME280;5728;42.722;23.258;2022-12-22T04:35:42;94948.28;;;-0.17;85.15
11347;BME280;5728;42.722;23.258;2022-12-22T04:38:10;94944.69;;;0.08;82.86
11347;BME280;5728;42.722;23.258;2022-12-22T04:40:36;94939.97;;;0.22;80.77
11347;BME280;5728;42.722;23.258;2022-12-22T04:43:03;94945.09;;;0.23;82.75
11347;BME280;5728;42.722;23.258;2022-12-22T04:45:30;94940.63;;;-0.48;85.78
11347;BME280;5728;42.722;23.258;2022-12-22T04:47:57;94941.13;;;-0.30;85.54
11347;BME280;5728;42.722;23.258;2022-12-22T04:50:24;94941.13;;;0.00;87.46
11347;BME280;5728;42.722;23.258;2022-12-22T04:52:50;94937.63;;;-0.02;86.46
11347;BME280;5728;42.722;23.258;2022-12-22T04:55:19;94938.53;;;-0.61;85.35
11347;BME280;5728;42.722;23.258;2022-12-22T04:57:45;94948.56;;;-1.20;85.37
11347;BME280;5728;42.722;23.258;2022-12-22T05:00:13;94946.94;;;-1.45;87.39
11347;BME280;5728;42.722;23.258;2022-12-22T05:02:40;94944.91;;;-1.03;87.89
11347;BME280;5728;42.722;23.258;2022-12-22T05:05:07;94930.00;;;-0.63;86.98
11347;BME280;5728;42.722;23.258;2022-12-22T05:07:34;94937.63;;;-0.02;82.97
11347;BME280;5728;42.722;23.258;2022-12-22T05:10:01;94941.03;;;-0.03;81.97
11347;BME280;5728;42.722;23.258;2022-12-22T05:12:29;94943.34;;;0.21;80.72
11347;BME280;5728;42.722;23.258;2022-12-22T05:15:13;94957.44;;;0.39;79.71
11347;BME280;5728;42.722;23.258;2022-12-22T05:17:40;94944.59;;;0.36;79.90
11347;BME280;5728;42.722;23.258;2022-12-22T05:20:08;94967.47;;;0.33;79.81
11347;BME280;5728;42.722;23.258;2022-12-22T05:22:34;94973.34;;;0.63;79.22
11347;BME280;5728;42.722;23.258;2022-12-22T05:25:01;94947.31;;;0.42;79.69
11347;BME280;5728;42.722;23.258;2022-12-22T05:27:30;94959.78;;;0.64;79.52
11347;BME280;5728;42.722;23.258;2022-12-22T05:29:56;94961.16;;;0.86;79.00
11347;BME280;5728;42.722;23.258;2022-12-22T05:32:23;94955.75;;;0.74;79.36
11347;BME280;5728;42.722;23.258;2022-12-22T05:34:50;94955.66;;;0.70;79.04
11347;BME280;5728;42.722;23.258;2022-12-22T05:37:16;94956.53;;;0.72;78.38
11347;BME280;5728;42.722;23.258;2022-12-22T05:39:43;94959.84;;;0.68;79.06
11347;BME280;5728;42.722;23.258;2022-12-22T05:42:10;94956.81;;;0.82;78.60
11347;BME280;5728;42.722;23.258;2022-12-22T05:44:38;94961.06;;;0.83;78.78
11347;BME280;5728;42.722;23.258;2022-12-22T05:47:05;94948.75;;;1.01;76.85
11347;BME280;5728;42.722;23.258;2022-12-22T05:49:31;94958.66;;;0.88;77.44
11347;BME280;5728;42.722;23.258;2022-12-22T05:51:58;94958.94;;;1.00;78.17
11347;BME280;5728;42.722;23.258;2022-12-22T05:54:25;94966.50;;;0.97;77.46
11347;BME280;5728;42.722;23.258;2022-12-22T05:56:51;94936.59;;;0.91;77.39
11347;BME280;5728;42.722;23.258;2022-12-22T05:59:18;94956.13;;;0.89;78.07
11347;BME280;5728;42.722;23.258;2022-12-22T06:01:46;94959.81;;;1.02;78.11
11347;BME280;5728;42.722;23.258;2022-12-22T06:04:13;94955.41;;;0.95;76.91
11347;BME280;5728;42.722;23.258;2022-12-22T06:06:40;94940.91;;;0.94;77.30
11347;BME280;5728;42.722;23.258;2022-12-22T06:09:06;94947.00;;;0.99;76.93
11347;BME280;5728;42.722;23.258;2022-12-22T06:11:33;94940.56;;;1.16;77.25
11347;BME280;5728;42.722;23.258;2022-12-22T06:14:00;94960.34;;;1.24;77.24
11347;BME280;5728;42.722;23.258;2022-12-22T06:16:26;94960.28;;;1.21;76.91
11347;BME280;5728;42.722;23.258;2022-12-22T06:18:54;94959.63;;;1.30;76.42
11347;BME280;5728;42.722;23.258;2022-12-22T06:21:21;94957.44;;;1.08;77.36
11347;BME280;5728;42.722;23.258;2022-12-22T06:23:48;94954.56;;;0.96;78.05
11347;BME280;5728;42.722;23.258;2022-12-22T06:26:15;94956.75;;;1.16;77.70
11347;BME280;5728;42.722;23.258;2022-12-22T06:28:41;94960.72;;;1.04;77.92
11347;BME280;5728;42.722;23.258;2022-12-22T06:31:08;94962.41;;;1.03;78.87
11347;BME280;5728;42.722;23.258;2022-12-22T06:33:35;94963.53;;;1.14;78.23
11347;BME280;5728;42.722;23.258;2022-12-22T06:36:05;94965.00;;;1.42;77.02
11347;BME280;5728;42.722;23.258;2022-12-22T06:38:32;94962.09;;;1.25;77.02
11347;BME280;5728;42.722;23.258;2022-12-22T06:40:59;94957.03;;;1.28;79.86
11347;BME280;5728;42.722;23.258;2022-12-22T06:43:32;94977.72;;;1.39;79.25
11347;BME280;5728;42.722;23.258;2022-12-22T06:45:58;94970.03;;;1.39;79.16
11347;BME280;5728;42.722;23.258;2022-12-22T06:48:24;94971.50;;;1.28;78.58
11347;BME280;5728;42.722;23.258;2022-12-22T06:50:56;94964.66;;;1.27;78.41
11347;BME280;5728;42.722;23.258;2022-12-22T06:53:25;94976.75;;;1.34;78.32
11347;BME280;5728;42.722;23.258;2022-12-22T06:55:52;94973.66;;;0.76;78.28
11347;BME280;5728;42.722;23.258;2022-12-22T06:58:18;94986.72;;;0.88;80.39
11347;BME280;5728;42.722;23.258;2022-12-22T07:00:45;94988.91;;;0.73;81.32
11347;BME280;5728;42.722;23.258;2022-12-22T07:03:14;94985.16;;;0.93;81.88
11347;BME280;5728;42.722;23.258;2022-12-22T07:05:40;94970.28;;;1.12;81.59
11347;BME280;5728;42.722;23.258;2022-12-22T07:08:07;94973.03;;;1.21;82.80
11347;BME280;5728;42.722;23.258;2022-12-22T07:10:35;94979.78;;;1.18;82.89
11347;BME280;5728;42.722;23.258;2022-12-22T07:13:19;94968.53;;;1.47;81.32
11347;BME280;5728;42.722;23.258;2022-12-22T07:15:49;94967.06;;;1.58;79.20
11347;BME280;5728;42.722;23.258;2022-12-22T07:18:16;94974.47;;;1.86;79.13
11347;BME280;5728;42.722;23.258;2022-12-22T07:20:42;94975.78;;;2.08;77.79
11347;BME280;5728;42.722;23.258;2022-12-22T07:23:09;94960.75;;;2.25;76.21
11347;BME280;5728;42.722;23.258;2022-12-22T07:25:38;94973.66;;;2.31;76.43
11347;BME280;5728;42.722;23.258;2022-12-22T07:28:05;94963.81;;;2.52;78.46
11347;BME280;5728;42.722;23.258;2022-12-22T07:30:32;94970.44;;;2.41;78.32
11347;BME280;5728;42.722;23.258;2022-12-22T07:33:00;94970.09;;;2.24;78.21
11347;BME280;5728;42.722;23.258;2022-12-22T07:35:27;94966.69;;;2.70;75.98
11347;BME280;5728;42.722;23.258;2022-12-22T07:37:54;94961.94;;;2.91;74.54
11347;BME280;5728;42.722;23.258;2022-12-22T07:40:21;94973.25;;;3.04;73.73
11347;BME280;5728;42.722;23.258;2022-12-22T07:42:49;94986.13;;;3.10;73.03
11347;BME280;5728;42.722;23.258;2022-12-22T07:45:18;94984.66;;;3.24;72.77
11347;BME280;5728;42.722;23.258;2022-12-22T07:47:45;94956.72;;;3.41;72.53
11347;BME280;5728;42.722;23.258;2022-12-22T07:50:14;94976.00;;;3.76;73.34
11347;BME280;5728;42.722;23.258;2022-12-22T07:52:53;94971.59;;;3.64;72.86
11347;BME280;5728;42.722;23.258;2022-12-22T07:55:21;94961.28;;;3.60;70.77
11347;BME280;5728;42.722;23.258;2022-12-22T07:57:51;94969.19;;;3.78;70.50
11347;BME280;5728;42.722;23.258;2022-12-22T08:00:18;94972.00;;;3.96;71.44
11347;BME280;5728;42.722;23.258;2022-12-22T08:02:48;94961.16;;;4.18;69.75
11347;BME280;5728;42.722;23.258;2022-12-22T08:05:15;94966.47;;;4.33;67.52
11347;BME280;5728;42.722;23.258;2022-12-22T08:07:42;94970.16;;;4.57;68.39
11347;BME280;5728;42.722;23.258;2022-12-22T08:10:09;94960.66;;;4.49;67.87
11347;BME280;5728;42.722;23.258;2022-12-22T08:12:36;94965.28;;;4.81;68.50
11347;BME280;5728;42.722;23.258;2022-12-22T08:15:06;94999.56;;;4.89;68.04
11347;BME280;5728;42.722;23.258;2022-12-22T08:17:34;94957.16;;;5.39;66.94
11347;BME280;5728;42.722;23.258;2022-12-22T08:20:02;94954.63;;;5.41;65.14
11347;BME280;5728;42.722;23.258;2022-12-22T08:22:29;94967.53;;;5.51;67.20
11347;BME280;5728;42.722;23.258;2022-12-22T08:24:57;94960.88;;;5.80;65.03
11347;BME280;5728;42.722;23.258;2022-12-22T08:27:27;94959.09;;;5.70;66.32
11347;BME280;5728;42.722;23.258;2022-12-22T08:29:58;94956.41;;;5.52;67.00
11347;BME280;5728;42.722;23.258;2022-12-22T08:32:27;94973.66;;;5.70;65.59
11347;BME280;5728;42.722;23.258;2022-12-22T08:34:55;94952.28;;;5.81;65.46
11347;BME280;5728;42.722;23.258;2022-12-22T08:37:24;94961.03;;;6.06;64.90
11347;BME280;5728;42.722;23.258;2022-12-22T08:39:55;94952.50;;;6.18;63.46
11347;BME280;5728;42.722;23.258;2022-12-22T08:42:24;94960.31;;;6.42;63.93
11347;BME280;5728;42.722;23.258;2022-12-22T08:44:52;94950.03;;;6.43;62.92
11347;BME280;5728;42.722;23.258;2022-12-22T08:47:19;94950.97;;;7.00;62.28
11347;BME280;5728;42.722;23.258;2022-12-22T08:49:47;94957.81;;;6.72;62.60
11347;BME280;5728;42.722;23.258;2022-12-22T08:52:15;94939.81;;;6.77;60.92
11347;BME280;5728;42.722;23.258;2022-12-22T08:54:41;94921.75;;;6.80;61.26
11347;BME280;5728;42.722;23.258;2022-12-22T08:57:08;94930.38;;;7.01;61.84
11347;BME280;5728;42.722;23.258;2022-12-22T08:59:35;94928.63;;;6.82;61.74
11347;BME280;5728;42.722;23.258;2022-12-22T09:02:02;94919.22;;;7.22;59.82
11347;BME280;5728;42.722;23.258;2022-12-22T09:04:30;94928.63;;;7.43;59.25
11347;BME280;5728;42.722;23.258;2022-12-22T09:06:58;94911.41;;;7.64;58.85
11347;BME280;5728;42.722;23.258;2022-12-22T09:09:29;94916.59;;;7.21;58.82
11347;BME280;5728;42.722;23.258;2022-12-22T09:11:56;94911.47;;;7.24;60.52
11347;BME280;5728;42.722;23.258;2022-12-22T09:14:23;94918.31;;;6.82;62.23
11347;BME280;5728;42.722;23.258;2022-12-22T09:16:50;94919.19;;;7.34;61.99
11347;BME280;5728;42.722;23.258;2022-12-22T09:19:17;94901.91;;;7.74;59.59
11347;BME280;5728;42.722;23.258;2022-12-22T09:21:44;94902.66;;;8.15;57.54
11347;BME280;5728;42.722;23.258;2022-12-22T09:24:12;94900.88;;;8.32;57.35
11347;BME280;5728;42.722;23.258;2022-12-22T09:26:39;94902.53;;;8.46;62.00
11347;BME280;5728;42.722;23.258;2022-12-22T09:29:06;94900.78;;;8.51;57.40
11347;BME280;5728;42.722;23.258;2022-12-22T09:31:33;94894.00;;;8.21;56.19
11347;BME280;5728;42.722;23.258;2022-12-22T09:34:00;94898.28;;;8.23;55.37
11347;BME280;5728;42.722;23.258;2022-12-22T09:36:29;94904.13;;;8.68;56.48
11347;BME280;5728;42.722;23.258;2022-12-22T09:38:58;94890.97;;;8.96;54.61
11347;BME280;5728;42.722;23.258;2022-12-22T09:41:29;94898.38;;;9.43;54.33
11347;BME280;5728;42.722;23.258;2022-12-22T09:44:00;94895.78;;;9.43;53.21
11347;BME280;5728;42.722;23.258;2022-12-22T09:46:30;94894.81;;;9.53;52.09
11347;BME280;5728;42.722;23.258;2022-12-22T09:48:58;94892.06;;;9.72;51.76
11347;BME280;5728;42.722;23.258;2022-12-22T09:51:25;94885.34;;;9.49;52.23
11347;BME280;5728;42.722;23.258;2022-12-22T09:53:54;94881.88;;;9.53;53.13
11347;BME280;5728;42.722;23.258;2022-12-22T09:56:26;94871.91;;;9.98;51.84
11347;BME280;5728;42.722;23.258;2022-12-22T09:58:54;94877.50;;;9.58;51.88
11347;BME280;5728;42.722;23.258;2022-12-22T10:01:31;94876.47;;;9.76;51.30
11347;BME280;5728;42.722;23.258;2022-12-22T10:04:03;94870.31;;;9.85;49.31
11347;BME280;5728;42.722;23.258;2022-12-22T10:06:36;94859.81;;;10.67;49.65
11347;BME280;5728;42.722;23.258;2022-12-22T10:09:13;94855.66;;;10.54;48.99
11347;BME280;5728;42.722;23.258;2022-12-22T10:11:50;94858.66;;;10.84;46.90
11347;BME280;5728;42.722;23.258;2022-12-22T10:14:17;94850.25;;;10.67;48.71
11347;BME280;5728;42.722;23.258;2022-12-22T10:16:44;94834.63;;;11.27;48.88
11347;BME280;5728;42.722;23.258;2022-12-22T10:19:11;94832.56;;;10.94;50.65
11347;BME280;5728;42.722;23.258;2022-12-22T10:21:39;94823.59;;;11.13;46.66
11347;BME280;5728;42.722;23.258;2022-12-22T10:24:15;94830.34;;;10.07;47.97
11347;BME280;5728;42.722;23.258;2022-12-22T10:26:42;94827.50;;;10.30;49.05
11347;BME280;5728;42.722;23.258;2022-12-22T10:29:12;94810.97;;;10.93;48.30
11347;BME280;5728;42.722;23.258;2022-12-22T10:31:57;94815.84;;;11.11;47.02
11347;BME280;5728;42.722;23.258;2022-12-22T10:34:24;94811.03;;;11.39;46.91
11347;BME280;5728;42.722;23.258;2022-12-22T10:36:54;94808.94;;;11.59;46.05
11347;BME280;5728;42.722;23.258;2022-12-22T10:39:23;94798.00;;;11.89;46.30
11347;BME280;5728;42.722;23.258;2022-12-22T10:41:52;94799.41;;;12.05;46.49
11347;BME280;5728;42.722;23.258;2022-12-22T10:44:24;94801.25;;;11.06;44.51
11347;BME280;5728;42.722;23.258;2022-12-22T10:46:52;94790.75;;;11.12;44.83
11347;BME280;5728;42.722;23.258;2022-12-22T10:49:22;94791.38;;;11.27;46.30
11347;BME280;5728;42.722;23.258;2022-12-22T10:51:51;94788.22;;;11.56;45.15
11347;BME280;5728;42.722;23.258;2022-12-22T10:54:27;94784.78;;;12.40;43.58
11347;BME280;5728;42.722;23.258;2022-12-22T10:57:03;94786.66;;;12.33;44.95
11347;BME280;5728;42.722;23.258;2022-12-22T10:59:32;94773.78;;;12.65;47.92
11347;BME280;5728;42.722;23.258;2022-12-22T11:02:23;94768.97;;;11.66;45.26
11347;BME280;5728;42.722;23.258;2022-12-22T11:04:51;94777.97;;;11.94;44.88
11347;BME280;5728;42.722;23.258;2022-12-22T11:07:19;94772.53;;;11.62;46.87
11347;BME280;5728;42.722;23.258;2022-12-22T11:09:46;94768.69;;;12.23;43.19
11347;BME280;5728;42.722;23.258;2022-12-22T11:12:20;94758.81;;;12.38;43.94
11347;BME280;5728;42.722;23.258;2022-12-22T11:14:57;94769.31;;;12.34;43.02
11347;BME280;5728;42.722;23.258;2022-12-22T11:17:29;94762.47;;;12.66;42.77
11347;BME280;5728;42.722;23.258;2022-12-22T11:20:14;94763.72;;;12.87;42.12
11347;BME280;5728;42.722;23.258;2022-12-22T11:22:54;94754.22;;;13.54;41.26
11347;BME280;5728;42.722;23.258;2022-12-22T11:25:30;94761.13;;;13.55;40.72
11347;BME280;5728;42.722;23.258;2022-12-22T11:28:11;94760.44;;;13.14;40.33
11347;BME280;5728;42.722;23.258;2022-12-22T11:30:49;94760.56;;;13.11;40.51
11347;BME280;5728;42.722;23.258;2022-12-22T11:33:32;94730.19;;;13.10;41.56
11347;BME280;5728;42.722;23.258;2022-12-22T11:36:05;94753.09;;;13.31;40.36
11347;BME280;5728;42.722;23.258;2022-12-22T11:38:46;94752.09;;;13.68;43.53
11347;BME280;5728;42.722;23.258;2022-12-22T11:41:28;94751.06;;;13.73;39.82
11347;BME280;5728;42.722;23.258;2022-12-22T11:44:08;94738.97;;;13.71;39.82
11347;BME280;5728;42.722;23.258;2022-12-22T11:46:46;94731.66;;;14.13;38.46
11347;BME280;5728;42.722;23.258;2022-12-22T11:49:42;94739.84;;;14.00;39.23
11347;BME280;5728;42.722;23.258;2022-12-22T11:52:27;94739.44;;;13.85;39.12
11347;BME280;5728;42.722;23.258;2022-12-22T11:55:19;94727.31;;;13.84;40.60
11347;BME280;5728;42.722;23.258;2022-12-22T11:57:58;94734.53;;;13.42;40.32
11347;BME280;5728;42.722;23.258;2022-12-22T12:00:33;94733.31;;;13.57;39.89
11347;BME280;5728;42.722;23.258;2022-12-22T12:03:35;94730.22;;;13.73;39.70
11347;BME280;5728;42.722;23.258;2022-12-22T12:06:28;94710.75;;;13.56;40.03
11347;BME280;5728;42.722;23.258;2022-12-22T12:09:13;94721.66;;;13.99;39.08
11347;BME280;5728;42.722;23.258;2022-12-22T12:11:46;94713.13;;;13.94;39.09
11347;BME280;5728;42.722;23.258;2022-12-22T12:14:20;94714.28;;;14.13;39.30
11347;BME280;5728;42.722;23.258;2022-12-22T12:16:54;94714.91;;;13.92;38.68
11347;BME280;5728;42.722;23.258;2022-12-22T12:22:45;94715.88;;;13.89;39.54
11347;BME280;5728;42.722;23.258;2022-12-22T12:25:22;94720.72;;;14.01;39.31
11347;BME280;5728;42.722;23.258;2022-12-22T12:28:03;94716.06;;;14.11;38.93
11347;BME280;5728;42.722;23.258;2022-12-22T12:30:38;94707.03;;;14.50;39.14
11347;BME280;5728;42.722;23.258;2022-12-22T12:33:13;94701.84;;;14.21;38.57
11347;BME280;5728;42.722;23.258;2022-12-22T12:35:50;94700.66;;;13.74;38.55
11347;BME280;5728;42.722;23.258;2022-12-22T12:38:26;94707.97;;;13.91;39.53
11347;BME280;5728;42.722;23.258;2022-12-22T12:41:01;94704.38;;;13.95;38.72
11347;BME280;5728;42.722;23.258;2022-12-22T12:43:30;94701.56;;;14.30;38.50
11347;BME280;5728;42.722;23.258;2022-12-22T12:45:57;94703.03;;;14.40;38.84
11347;BME280;5728;42.722;23.258;2022-12-22T12:48:39;94702.03;;;14.44;41.09
11347;BME280;5728;42.722;23.258;2022-12-22T12:54:45;94702.13;;;13.52;40.38
11347;BME280;5728;42.722;23.258;2022-12-22T12:57:29;94698.81;;;13.47;40.16
11347;BME280;5728;42.722;23.258;2022-12-22T12:59:57;94698.44;;;13.30;41.79
11347;BME280;5728;42.722;23.258;2022-12-22T13:02:36;94690.91;;;12.86;42.71
11347;BME280;5728;42.722;23.258;2022-12-22T13:05:12;94700.69;;;12.76;43.44
11347;BME280;5728;42.722;23.258;2022-12-22T13:08:09;94695.00;;;12.94;42.95
11347;BME280;5728;42.722;23.258;2022-12-22T13:10:42;94685.09;;;12.76;44.06
11347;BME280;5728;42.722;23.258;2022-12-22T13:13:11;94693.91;;;12.69;47.11
11347;BME280;5728;42.722;23.258;2022-12-22T13:15:40;94682.38;;;12.79;44.54
11347;BME280;5728;42.722;23.258;2022-12-22T13:18:38;94697.19;;;12.77;44.30
11347;BME280;5728;42.722;23.258;2022-12-22T13:21:13;94681.25;;;12.18;45.88
11347;BME280;5728;42.722;23.258;2022-12-22T13:23:43;94681.34;;;12.15;46.46
11347;BME280;5728;42.722;23.258;2022-12-22T13:26:15;94684.19;;;12.03;47.99
11347;BME280;5728;42.722;23.258;2022-12-22T13:28:43;94686.22;;;11.48;49.66
11347;BME280;5728;42.722;23.258;2022-12-22T13:31:15;94677.66;;;11.44;48.13
11347;BME280;5728;42.722;23.258;2022-12-22T13:33:44;94672.69;;;11.34;50.57
11347;BME280;5728;42.722;23.258;2022-12-22T13:36:15;94686.97;;;11.12;49.65
11347;BME280;5728;42.722;23.258;2022-12-22T13:38:44;94682.19;;;11.35;50.82
11347;BME280;5728;42.722;23.258;2022-12-22T13:41:15;94676.53;;;11.56;48.31
11347;BME280;5728;42.722;23.258;2022-12-22T13:43:43;94675.63;;;11.60;48.25
11347;BME280;5728;42.722;23.258;2022-12-22T13:46:13;94671.41;;;11.54;47.98
11347;BME280;5728;42.722;23.258;2022-12-22T13:48:41;94669.78;;;11.06;49.66
11347;BME280;5728;42.722;23.258;2022-12-22T13:51:13;94678.38;;;11.10;50.01
11347;BME280;5728;42.722;23.258;2022-12-22T13:53:45;94668.34;;;10.90;50.15
11347;BME280;5728;42.722;23.258;2022-12-22T13:56:16;94652.94;;;10.81;51.87
11347;BME280;5728;42.722;23.258;2022-12-22T13:58:44;94666.06;;;11.18;50.56
11347;BME280;5728;42.722;23.258;2022-12-22T14:01:15;94655.34;;;10.92;50.91
11347;BME280;5728;42.722;23.258;2022-12-22T14:03:47;94661.19;;;11.03;50.01
11347;BME280;5728;42.722;23.258;2022-12-22T14:06:18;94661.31;;;10.95;50.08